SWA912 KMCO-MWCR
Flight info
| Callsign | SWA912 |
|---|---|
| Flight time | N/A |
| Altitude | 37000 |
| Route | FSHUN4 PLUMR DCT FEMID Q79 MCLAW Y442 FUNDI UM335 ALVEK UM328 UCL DCT LACET L465 GCM |
| Aircraft | B737/M-SADE2E3GIJ4RWZ/LB1D1 |
Departure
| Time | 2026-04-24 15:32 |
|---|---|
| Airport | Orlando International Airport (KMCO) |
Arrival
| Time | N/A |
|---|---|
| Airport | Owen Roberts International Airport (MWCR) |
| Time | Latitude | Longitude | Altitude | Speed | Heading |
|---|---|---|---|---|---|
| 2026-04-24 15:19 | 28.43605 | -81.30286 | 100 ft | 0 kts | 166° |
| 2026-04-24 15:24 | 28.43663 | -81.30300 | 98 ft | 4 kts | 129° |
| 2026-04-24 15:25 | 28.43667 | -81.30350 | 99 ft | 4 kts | 46° |
| 2026-04-24 15:25 | 28.43648 | -81.30371 | 100 ft | 0 kts | 53° |
| 2026-04-24 15:28 | 28.43798 | -81.30151 | 100 ft | 12 kts | 58° |
| 2026-04-24 15:29 | 28.43742 | -81.29910 | 101 ft | 24 kts | 156° |
| 2026-04-24 15:30 | 28.43518 | -81.29589 | 104 ft | 14 kts | 167° |
| 2026-04-24 15:31 | 28.41491 | -81.29565 | 180 ft | 181 kts | 179° |
| 2026-04-24 15:32 | 28.35891 | -81.31067 | 2745 ft | 263 kts | 205° |
| 2026-04-24 15:33 | 28.19547 | -81.32179 | 10480 ft | 295 kts | 174° |
| 2026-04-24 15:33 | 28.10587 | -81.32062 | 12976 ft | 350 kts | 197° |
| 2026-04-24 15:34 | 28.03789 | -81.38206 | 15879 ft | 369 kts | 221° |
| 2026-04-24 15:35 | 27.83782 | -81.57375 | 22806 ft | 408 kts | 215° |
| 2026-04-24 15:35 | 27.71237 | -81.67778 | 25719 ft | 427 kts | 205° |
| 2026-04-24 15:35 | 27.68462 | -81.68817 | 26174 ft | 428 kts | 188° |
| 2026-04-24 15:36 | 27.65490 | -81.68982 | 26665 ft | 428 kts | 173° |
| 2026-04-24 15:36 | 27.44842 | -81.65690 | 29540 ft | 448 kts | 171° |
| 2026-04-24 15:36 | 27.32343 | -81.63791 | 30960 ft | 458 kts | 171° |
| 2026-04-24 15:37 | 27.19594 | -81.61880 | 32330 ft | 464 kts | 171° |
| 2026-04-24 15:37 | 27.06857 | -81.59965 | 34131 ft | 458 kts | 171° |
| 2026-04-24 15:37 | 26.94739 | -81.58142 | 35603 ft | 456 kts | 171° |
| 2026-04-24 15:37 | 26.91600 | -81.57671 | 36017 ft | 454 kts | 171° |
| 2026-04-24 15:38 | 26.88469 | -81.57202 | 36380 ft | 454 kts | 171° |
| 2026-04-24 15:38 | 26.85341 | -81.56733 | 36653 ft | 455 kts | 171° |
| 2026-04-24 15:38 | 26.82198 | -81.56262 | 36904 ft | 456 kts | 171° |
| 2026-04-24 15:38 | 26.78958 | -81.55777 | 37049 ft | 459 kts | 171° |
| 2026-04-24 15:39 | 26.58588 | -81.52734 | 37103 ft | 466 kts | 171° |
| 2026-04-24 15:39 | 26.40366 | -81.50022 | 37020 ft | 462 kts | 171° |
| 2026-04-24 15:40 | 26.33633 | -81.49022 | 37047 ft | 460 kts | 171° |
| 2026-04-24 15:40 | 26.19632 | -81.46945 | 37081 ft | 465 kts | 171° |
| 2026-04-24 15:41 | 26.12579 | -81.45901 | 37031 ft | 464 kts | 171° |
| 2026-04-24 15:42 | 26.11939 | -81.45804 | 37037 ft | 462 kts | 171° |
| 2026-04-24 15:42 | 26.00430 | -81.42356 | 37040 ft | 443 kts | 161° |
| 2026-04-24 15:43 | 25.83503 | -81.36442 | 37050 ft | 445 kts | 162° |
| 2026-04-24 15:43 | 25.82144 | -81.35986 | 37020 ft | 446 kts | 162° |
| 2026-04-24 15:44 | 25.79850 | -81.35220 | 37140 ft | 447 kts | 162° |
| 2026-04-24 15:44 | 25.76234 | -81.34017 | 37060 ft | 456 kts | 162° |
| 2026-04-24 15:44 | 25.64909 | -81.30245 | 37068 ft | 467 kts | 162° |
| 2026-04-24 15:44 | 25.57375 | -81.27730 | 37048 ft | 468 kts | 162° |
| 2026-04-24 15:45 | 25.38924 | -81.21583 | 37010 ft | 459 kts | 162° |